Coronis — V7FH8 — position and weather

sailwx.info

Track history (hours):
 
Tides and Currents Weather Stations Pressure Air Temp Water Temp Dewpoint Dewpoint Depression Visibility Wind Speed Wind Dir Waves Ship Positions

Coronis

Last reported at 2017-Oct-15 12:50 UTC. Time now 2017-Nov-18 14:24 UTC.
Position N 27°50' W 119°36'.
Warning: this ship's position is 34 days out of date.

Length 225 m; draft 14.2 m.

Type: Cargo ship. MMSI: 538005598.

Date/timePositionNaut miles runAvg speedWind from/ knotsBaromVisibWave heightAir tempDewpointWater temp
2017-Oct-15 12:50N 27°50' W 119°36'413.4
2017-Oct-15 12:30N 27°53' W 119°39'713.4
2017-Oct-15 12:01N 27°58' W 119°45'1213.5
2017-Oct-15 11:09N 28°06' W 119°55'213.6
2017-Oct-15 11:00N 28°07' W 119°56'913.5
2017-Oct-15 10:21N 28°13' W 120°04'513.6
2017-Oct-15 10:01N 28°16' W 120°08'713.6
2017-Oct-15 09:30N 28°20' W 120°13'913.7
2017-Oct-15 08:52N 28°26' W 120°21'513.6
2017-Oct-15 08:30N 28°30' W 120°25'713.8
2017-Oct-15 08:00N 28°34' W 120°31'3113.8
2017-Oct-15 05:46N 28°55' W 120°57'1513.8
2017-Oct-15 04:40N 29°05' W 121°10'413.7
2017-Oct-15 04:22N 29°08' W 121°13'2513.4
2017-Oct-15 02:29N 29°25' W 121°35'3313.4
2017-Oct-15 00:03N 29°46' W 122°03'114.1
2017-Oct-15 00:00N 29°47' W 122°03'2613.5
2017-Oct-14 22:04N 30°04' W 122°26'213.7
2017-Oct-14 21:57N 30°05' W 122°27'613.5
2017-Oct-14 21:30N 30°09' W 122°32'713.7
2017-Oct-14 21:00N 30°14' W 122°38'713.4
2017-Oct-14 20:29N 30°19' W 122°44'713.8
2017-Oct-14 20:00N 30°24' W 122°48'714.0
2017-Oct-14 19:30N 30°30' W 122°52'1213.7
2017-Oct-14 18:37N 30°41' W 122°60'313.4
2017-Oct-14 18:25N 30°43' W 123°02'1013.5
2017-Oct-14 17:43N 30°51' W 123°08'313.3
2017-Oct-14 17:30N 30°53' W 123°10'  
2017-Oct-10 20:58N 48°12' W 125°59'510.7
2017-Oct-10 20:29N 48°13' W 125°52'611.4
2017-Oct-10 19:59N 48°15' W 125°44'612.3
2017-Oct-10 19:28N 48°19' W 125°36'712.1
2017-Oct-10 18:53N 48°23' W 125°27'411.6
2017-Oct-10 18:30N 48°25' W 125°21'611.7
2017-Oct-10 18:00N 48°28' W 125°14'611.5
2017-Oct-10 17:30N 48°31' W 125°06'612.6
2017-Oct-10 17:00N 48°31' W 124°57'713.4
2017-Oct-10 16:30N 48°31' W 124°47'612.9
2017-Oct-10 16:00N 48°29' W 124°37'612.9
2017-Oct-10 15:30N 48°27' W 124°28'612.8
2017-Oct-10 15:00N 48°24' W 124°20'1212.2
2017-Oct-10 14:00N 48°19' W 124°02'611.9
2017-Oct-10 13:29N 48°17' W 123°54'611.8
2017-Oct-10 12:59N 48°16' W 123°45'611.6
2017-Oct-10 12:30N 48°16' W 123°37'610.3
2017-Oct-10 11:56N 48°18' W 123°28'511.5
2017-Oct-10 11:30N 48°22' W 123°25'5 9.1
2017-Oct-10 11:00N 48°23' W 123°18'5 9.8
2017-Oct-10 10:30N 48°26' W 123°12'714.1
2017-Oct-10 10:00N 48°33' W 123°13'714.3
2017-Oct-10 09:30N 48°40' W 123°15'612.5
2017-Oct-10 09:01N 48°44' W 123°08'713.2
2017-Oct-10 08:30N 48°48' W 123°00'713.5
2017-Oct-10 08:00N 48°54' W 123°06'612.2
2017-Oct-10 07:30N 48°60' W 123°10'1 2.6
2017-Oct-10 07:00N 49°01' W 123°09'0 0.0
2017-Oct-10 06:29N 49°01' W 123°09'0 0.0
2017-Oct-10 05:59N 49°01' W 123°09'0 0.0
2017-Oct-10 05:29N 49°01' W 123°09'0 0.0
2017-Oct-10 04:59N 49°01' W 123°09'0 0.0
2017-Oct-10 04:26N 49°01' W 123°09'0 0.0
2017-Oct-10 03:59N 49°01' W 123°09'0 0.0
2017-Oct-10 03:23N 49°01' W 123°09'0 0.0
2017-Oct-10 02:59N 49°01' W 123°09'0 0.0
2017-Oct-10 02:29N 49°01' W 123°09'0 0.0
2017-Oct-10 01:59N 49°01' W 123°09'0 0.0
2017-Oct-10 01:29N 49°01' W 123°09'0 0.0
2017-Oct-10 00:59N 49°01' W 123°09'0 0.0
2017-Oct-10 00:29N 49°01' W 123°09'0 0.0
2017-Oct-09 23:56N 49°01' W 123°09'0 0.0
2017-Oct-09 23:20N 49°01' W 123°09'0 0.0
2017-Oct-09 22:59N 49°01' W 123°09'0 0.0
2017-Oct-09 22:26N 49°01' W 123°09'0 0.0
2017-Oct-09 21:56N 49°01' W 123°09'0 0.0
2017-Oct-09 21:26N 49°01' W 123°09'0 0.0
2017-Oct-09 20:59N 49°01' W 123°09'0 0.0
2017-Oct-09 20:29N 49°01' W 123°09'0 0.0
2017-Oct-09 19:59N 49°01' W 123°09'0 0.0
2017-Oct-09 19:29N 49°01' W 123°09'0 0.0
2017-Oct-09 18:59N 49°01' W 123°09'0 0.0
2017-Oct-09 18:29N 49°01' W 123°09'0 0.0
2017-Oct-09 17:59N 49°01' W 123°09'0 0.0
2017-Oct-09 17:29N 49°01' W 123°09'0 0.0
2017-Oct-09 16:59N 49°01' W 123°09'0 0.0
2017-Oct-09 16:29N 49°01' W 123°09'0 0.0
2017-Oct-09 15:59N 49°01' W 123°09'0 0.0
2017-Oct-09 15:29N 49°01' W 123°09'0 0.0
2017-Oct-09 14:56N 49°01' W 123°09'0 0.0
2017-Oct-09 14:29N 49°01' W 123°09'0 0.0
2017-Oct-09 13:59N 49°01' W 123°09'0 0.0
2017-Oct-09 13:29N 49°01' W 123°09'0 0.0
2017-Oct-09 12:59N 49°01' W 123°09'0 0.0
2017-Oct-09 12:29N 49°01' W 123°09'0 0.0
2017-Oct-09 11:56N 49°01' W 123°09'0 0.0
2017-Oct-09 11:29N 49°01' W 123°09'0 0.0
2017-Oct-09 10:53N 49°01' W 123°09'0 0.0
2017-Oct-09 10:29N 49°01' W 123°09'0 0.0
2017-Oct-09 09:59N 49°01' W 123°09'0 0.0
2017-Oct-09 09:29N 49°01' W 123°09'0 0.0
2017-Oct-09 08:59N 49°01' W 123°09'0 0.0
2017-Oct-09 08:29N 49°01' W 123°09'0 0.0
2017-Oct-09 07:59N 49°01' W 123°09'0 0.0
2017-Oct-09 07:29N 49°01' W 123°09'0 0.0
2017-Oct-09 06:59N 49°01' W 123°09'0 0.0
2017-Oct-09 06:29N 49°01' W 123°09'0 0.0
2017-Oct-09 05:59N 49°01' W 123°09'0 0.0
2017-Oct-09 05:29N 49°01' W 123°09'0 0.0
2017-Oct-09 04:56N 49°01' W 123°09'0 0.0
2017-Oct-09 04:29N 49°01' W 123°09'0 0.0
2017-Oct-09 03:59N 49°01' W 123°09'0 0.0
2017-Oct-09 03:29N 49°01' W 123°09'0 0.0
2017-Oct-09 02:59N 49°01' W 123°09'0 0.0
2017-Oct-09 02:29N 49°01' W 123°09'0 0.0
2017-Oct-09 01:59N 49°01' W 123°09'0 0.0
2017-Oct-09 01:20N 49°01' W 123°09'0 0.0
2017-Oct-09 00:56N 49°01' W 123°09'0 0.0
2017-Oct-09 00:26N 49°01' W 123°09'0 0.0
2017-Oct-08 23:59N 49°01' W 123°09'0 0.0
2017-Oct-08 23:26N 49°01' W 123°09'0 0.0
2017-Oct-08 22:59N 49°01' W 123°09'0 0.0
2017-Oct-08 22:29N 49°01' W 123°09'0 0.0
2017-Oct-08 21:59N 49°01' W 123°09'0 0.0
2017-Oct-08 21:29N 49°01' W 123°09'0 0.0
2017-Oct-08 20:53N 49°01' W 123°09'0 0.0
2017-Oct-08 20:29N 49°01' W 123°09'0 0.0
2017-Oct-08 19:53N 49°01' W 123°09'0 0.0
2017-Oct-08 19:29N 49°01' W 123°09'0 0.0
2017-Oct-08 18:53N 49°01' W 123°09'0 0.0
2017-Oct-08 18:29N 49°01' W 123°09'0 0.0
2017-Oct-08 18:01N 49°01' W 123°09'1 1.2
2017-Oct-08 17:30N 49°00' W 123°10'1 2.7
2017-Oct-08 17:00N 49°00' W 123°12'1 3.0
2017-Oct-08 16:30N 49°00' W 123°14'4 8.7
2017-Oct-08 16:01N 49°02' W 123°20'612.6
2017-Oct-08 15:30N 49°08' W 123°22'713.5
2017-Oct-08 15:01N 49°15' W 123°20'510.8
2017-Oct-08 14:30N 49°18' W 123°14'0 0.9
2017-Oct-08 13:59N 49°18' W 123°13'0 0.1
2017-Oct-08 13:29N 49°18' W 123°13'0 0.0
2017-Oct-08 12:59N 49°18' W 123°13'0 0.1
2017-Oct-08 12:29N 49°18' W 123°13'0 0.1
2017-Oct-08 11:59N 49°18' W 123°13'0 0.1
2017-Oct-08 11:29N 49°18' W 123°13'0 0.1
2017-Oct-08 10:59N 49°18' W 123°13'0 0.1
2017-Oct-08 10:29N 49°18' W 123°13'0 0.1
2017-Oct-08 09:59N 49°18' W 123°13'0 0.1
2017-Oct-08 09:29N 49°18' W 123°13'0 0.0
2017-Oct-08 08:59N 49°18' W 123°13'0 0.1
2017-Oct-08 08:29N 49°18' W 123°13'0 0.1
2017-Oct-08 07:59N 49°18' W 123°13'0 0.1
2017-Oct-08 07:29N 49°18' W 123°13'0 0.0
2017-Oct-08 06:59N 49°18' W 123°13'0 0.0
2017-Oct-08 06:29N 49°18' W 123°13'0 0.0
2017-Oct-08 05:59N 49°18' W 123°13'0 0.0
2017-Oct-08 05:29N 49°18' W 123°13'0 0.0
2017-Oct-08 04:59N 49°18' W 123°13'0 0.0
2017-Oct-08 04:29N 49°18' W 123°13'0 0.0
2017-Oct-08 03:59N 49°18' W 123°13'0 0.0
2017-Oct-08 03:29N 49°18' W 123°13'0 0.1
2017-Oct-08 02:59N 49°18' W 123°13'0 0.2
2017-Oct-08 02:29N 49°18' W 123°13'0 0.2
2017-Oct-08 01:59N 49°18' W 123°13'0 0.2
2017-Oct-08 01:29N 49°18' W 123°13'0 0.0
2017-Oct-08 00:59N 49°18' W 123°13'0 0.0
2017-Oct-08 00:26N 49°18' W 123°13'0 0.1
2017-Oct-07 23:59N 49°18' W 123°13'0 0.0
2017-Oct-07 23:29N 49°18' W 123°13'0 0.0
2017-Oct-07 22:56N 49°18' W 123°13'0 0.0
2017-Oct-07 22:29N 49°18' W 123°13'0 0.0
2017-Oct-07 21:59N 49°18' W 123°13'0 0.0
2017-Oct-07 21:29N 49°18' W 123°13'0 0.0
2017-Oct-07 20:59N 49°18' W 123°13'0 0.1
2017-Oct-07 20:29N 49°18' W 123°13'0 0.1
2017-Oct-07 19:59N 49°18' W 123°13'0 0.1
2017-Oct-07 19:29N 49°18' W 123°13'0 0.2
2017-Oct-07 18:59N 49°18' W 123°13'0 0.1
2017-Oct-07 18:29N 49°18' W 123°13'0 0.0
2017-Oct-07 17:59N 49°18' W 123°13'0 0.0
2017-Oct-07 17:29N 49°18' W 123°13'0 0.1
2017-Oct-07 16:59N 49°18' W 123°13'0 0.1
2017-Oct-07 16:29N 49°18' W 123°13'0 0.1
2017-Oct-07 15:59N 49°18' W 123°13'0 0.1
2017-Oct-07 15:29N 49°18' W 123°13'0 0.1
2017-Oct-07 14:56N 49°18' W 123°13'0 0.1
2017-Oct-07 14:26N 49°18' W 123°13'0 0.1
2017-Oct-07 13:59N 49°18' W 123°13'0 0.1
2017-Oct-07 13:29N 49°18' W 123°13'0 0.0
2017-Oct-07 12:59N 49°18' W 123°13'0 0.1
2017-Oct-07 12:29N 49°18' W 123°13'0 0.0
2017-Oct-07 11:59N 49°18' W 123°13'0 0.1
2017-Oct-07 11:29N 49°18' W 123°13'0 0.0
2017-Oct-07 10:59N 49°18' W 123°13'0 0.0
2017-Oct-07 10:29N 49°18' W 123°13'0 0.0
2017-Oct-07 09:59N 49°18' W 123°13'0 0.0
2017-Oct-07 09:29N 49°18' W 123°13'0 0.0
2017-Oct-07 08:56N 49°18' W 123°13'0 0.0
2017-Oct-07 08:29N 49°18' W 123°13'0 0.0
2017-Oct-07 07:59N 49°18' W 123°13'0 0.0
2017-Oct-07 07:29N 49°18' W 123°13'0 0.0
2017-Oct-07 06:59N 49°18' W 123°13'0 0.0
2017-Oct-07 06:29N 49°18' W 123°13'0 0.0
2017-Oct-07 05:59N 49°18' W 123°13'0 0.0
2017-Oct-07 05:29N 49°18' W 123°13'0 0.0
2017-Oct-07 04:59N 49°18' W 123°13'0 0.2
2017-Oct-07 04:29N 49°18' W 123°13'0 0.0
2017-Oct-07 03:59N 49°18' W 123°13'0 0.1
2017-Oct-07 03:29N 49°18' W 123°13'0 0.1
2017-Oct-07 02:59N 49°18' W 123°13'0 0.1
2017-Oct-07 02:29N 49°18' W 123°13'0 0.2
2017-Oct-07 01:59N 49°18' W 123°13'0 0.3
2017-Oct-07 01:29N 49°18' W 123°13'0 0.2
2017-Oct-07 00:59N 49°18' W 123°13'0 0.1
2017-Oct-07 00:29N 49°18' W 123°13'0 0.0
2017-Oct-06 23:59N 49°18' W 123°13'0 0.0
2017-Oct-06 23:29N 49°18' W 123°13'0 0.0
2017-Oct-06 22:59N 49°18' W 123°13'0 0.1
2017-Oct-06 22:29N 49°18' W 123°13'0 0.0
2017-Oct-06 21:59N 49°18' W 123°13'0 0.0
2017-Oct-06 21:29N 49°18' W 123°13'0 0.2
2017-Oct-06 21:01N 49°18' W 123°13'1 2.8
2017-Oct-06 20:31N 49°18' W 123°16'5 9.8
2017-Oct-06 20:00N 49°13' W 123°19'714.8
2017-Oct-06 19:30N 49°06' W 123°21'713.3
2017-Oct-06 19:00N 49°01' W 123°15'713.6
2017-Oct-06 18:30N 48°56' W 123°08'714.0
2017-Oct-06 18:01N 48°50' W 123°01'510.1
2017-Oct-06 17:31N 48°46' W 123°03'611.8
2017-Oct-06 17:01N 48°43' W 123°11'612.9
2017-Oct-06 16:30N 48°46' W 123°20'613.0
2017-Oct-06 16:00N 48°52' W 123°25'713.8
2017-Oct-06 15:31N 48°57' W 123°32'713.0
2017-Oct-06 15:00N 49°02' W 123°38'0 0.7
2017-Oct-06 14:21N 49°02' W 123°39'0 0.0
2017-Oct-06 13:54N 49°02' W 123°39'0 0.0
2017-Oct-06 13:24N 49°02' W 123°39'0 0.0
2017-Oct-06 12:48N 49°02' W 123°39'0 0.0
2017-Oct-06 12:18N 49°02' W 123°39'0 0.1
2017-Oct-06 11:57N 49°02' W 123°39'0 0.0
2017-Oct-06 11:27N 49°02' W 123°39'0 0.0
2017-Oct-06 10:54N 49°02' W 123°39'0 0.0
2017-Oct-06 10:27N 49°02' W 123°39'0 0.1
2017-Oct-06 09:54N 49°02' W 123°39'0 0.1
2017-Oct-06 08:30N 49°02' W 123°39'0 0.2
2017-Oct-06 07:57N 49°02' W 123°39'0 0.1
2017-Oct-06 07:09N 49°02' W 123°39'0 0.0
2017-Oct-06 06:39N 49°02' W 123°39'0 0.0
2017-Oct-06 06:21N 49°02' W 123°39'0 0.1
2017-Oct-06 06:00N 49°02' W 123°39'0 0.0
2017-Oct-06 03:36N 49°02' W 123°39'0 0.0
2017-Oct-06 02:33N 49°02' W 123°39'0 0.2
2017-Oct-06 02:21N 49°02' W 123°39'0 0.1
2017-Oct-06 01:57N 49°02' W 123°39'0 0.2
2017-Oct-06 01:27N 49°02' W 123°39'0 0.1
2017-Oct-06 00:39N 49°02' W 123°39'0 0.1
2017-Oct-06 00:21N 49°02' W 123°39'0 0.0
2017-Oct-05 23:57N 49°02' W 123°39'0 0.0
2017-Oct-05 22:57N 49°02' W 123°39'0 0.0
2017-Oct-05 21:45N 49°02' W 123°39'0 0.1
2017-Oct-05 21:27N 49°02' W 123°39'0 0.1
2017-Oct-05 20:51N 49°02' W 123°39'0 0.2
2017-Oct-05 20:30N 49°02' W 123°39'0 0.2
2017-Oct-05 19:54N 49°02' W 123°39'0 0.1
2017-Oct-05 19:15N 49°02' W 123°39'0 0.1
2017-Oct-05 18:57N 49°02' W 123°39'0 0.0
2017-Oct-05 18:18N 49°02' W 123°39'0 0.1
2017-Oct-05 17:57N 49°02' W 123°39'0 0.0
2017-Oct-05 17:03N 49°02' W 123°39'0 0.0
2017-Oct-05 16:51N 49°02' W 123°39'0 0.0
2017-Oct-05 15:21N 49°02' W 123°39'0 0.1
2017-Oct-05 14:03N 49°02' W 123°39'0 0.2
2017-Oct-05 14:00N 49°02' W 123°39'0 0.2
2017-Oct-05 13:27N 49°02' W 123°39'  
Track history (hours):
 
Tides and Currents Weather Stations Pressure Air Temp Water Temp Dewpoint Dewpoint Depression Visibility Wind Speed Wind Dir Waves Ship Positions

Coronis

Last reported at 2017-Oct-15 12:50 UTC. Time now 2017-Nov-18 14:24 UTC.
Position N 27°50' W 119°36'.
Warning: this ship's position is 34 days out of date.

Length 225 m; draft 14.2 m.

Type: Cargo ship. MMSI: 538005598.

Date/timePositionNaut miles runAvg speedWind from/ knotsBaromVisibWave heightAir tempDewpointWater temp
2017-Oct-15 12:50N 27°50' W 119°36'413.4
2017-Oct-15 12:30N 27°53' W 119°39'713.4
2017-Oct-15 12:01N 27°58' W 119°45'1213.5
2017-Oct-15 11:09N 28°06' W 119°55'213.6
2017-Oct-15 11:00N 28°07' W 119°56'913.5
2017-Oct-15 10:21N 28°13' W 120°04'513.6
2017-Oct-15 10:01N 28°16' W 120°08'713.6
2017-Oct-15 09:30N 28°20' W 120°13'913.7
2017-Oct-15 08:52N 28°26' W 120°21'513.6
2017-Oct-15 08:30N 28°30' W 120°25'713.8
2017-Oct-15 08:00N 28°34' W 120°31'3113.8
2017-Oct-15 05:46N 28°55' W 120°57'1513.8
2017-Oct-15 04:40N 29°05' W 121°10'413.7
2017-Oct-15 04:22N 29°08' W 121°13'2513.4
2017-Oct-15 02:29N 29°25' W 121°35'3313.4
2017-Oct-15 00:03N 29°46' W 122°03'114.1
2017-Oct-15 00:00N 29°47' W 122°03'2613.5
2017-Oct-14 22:04N 30°04' W 122°26'213.7
2017-Oct-14 21:57N 30°05' W 122°27'613.5
2017-Oct-14 21:30N 30°09' W 122°32'713.7
2017-Oct-14 21:00N 30°14' W 122°38'713.4
2017-Oct-14 20:29N 30°19' W 122°44'713.8
2017-Oct-14 20:00N 30°24' W 122°48'714.0
2017-Oct-14 19:30N 30°30' W 122°52'1213.7
2017-Oct-14 18:37N 30°41' W 122°60'313.4
2017-Oct-14 18:25N 30°43' W 123°02'1013.5
2017-Oct-14 17:43N 30°51' W 123°08'313.3
2017-Oct-14 17:30N 30°53' W 123°10'  
2017-Oct-10 20:58N 48°12' W 125°59'510.7
2017-Oct-10 20:29N 48°13' W 125°52'611.4
2017-Oct-10 19:59N 48°15' W 125°44'612.3
2017-Oct-10 19:28N 48°19' W 125°36'712.1
2017-Oct-10 18:53N 48°23' W 125°27'411.6
2017-Oct-10 18:30N 48°25' W 125°21'611.7
2017-Oct-10 18:00N 48°28' W 125°14'611.5
2017-Oct-10 17:30N 48°31' W 125°06'612.6
2017-Oct-10 17:00N 48°31' W 124°57'713.4
2017-Oct-10 16:30N 48°31' W 124°47'612.9
2017-Oct-10 16:00N 48°29' W 124°37'612.9
2017-Oct-10 15:30N 48°27' W 124°28'612.8
2017-Oct-10 15:00N 48°24' W 124°20'1212.2
2017-Oct-10 14:00N 48°19' W 124°02'611.9
2017-Oct-10 13:29N 48°17' W 123°54'611.8
2017-Oct-10 12:59N 48°16' W 123°45'611.6
2017-Oct-10 12:30N 48°16' W 123°37'610.3
2017-Oct-10 11:56N 48°18' W 123°28'511.5
2017-Oct-10 11:30N 48°22' W 123°25'5 9.1
2017-Oct-10 11:00N 48°23' W 123°18'5 9.8
2017-Oct-10 10:30N 48°26' W 123°12'714.1
2017-Oct-10 10:00N 48°33' W 123°13'714.3
2017-Oct-10 09:30N 48°40' W 123°15'612.5
2017-Oct-10 09:01N 48°44' W 123°08'713.2
2017-Oct-10 08:30N 48°48' W 123°00'713.5
2017-Oct-10 08:00N 48°54' W 123°06'612.2
2017-Oct-10 07:30N 48°60' W 123°10'1 2.6
2017-Oct-10 07:00N 49°01' W 123°09'0 0.0
2017-Oct-10 06:29N 49°01' W 123°09'0 0.0
2017-Oct-10 05:59N 49°01' W 123°09'0 0.0
2017-Oct-10 05:29N 49°01' W 123°09'0 0.0
2017-Oct-10 04:59N 49°01' W 123°09'0 0.0
2017-Oct-10 04:26N 49°01' W 123°09'0 0.0
2017-Oct-10 03:59N 49°01' W 123°09'0 0.0
2017-Oct-10 03:23N 49°01' W 123°09'0 0.0
2017-Oct-10 02:59N 49°01' W 123°09'0 0.0
2017-Oct-10 02:29N 49°01' W 123°09'0 0.0
2017-Oct-10 01:59N 49°01' W 123°09'0 0.0
2017-Oct-10 01:29N 49°01' W 123°09'0 0.0
2017-Oct-10 00:59N 49°01' W 123°09'0 0.0
2017-Oct-10 00:29N 49°01' W 123°09'0 0.0
2017-Oct-09 23:56N 49°01' W 123°09'0 0.0
2017-Oct-09 23:20N 49°01' W 123°09'0 0.0
2017-Oct-09 22:59N 49°01' W 123°09'0 0.0
2017-Oct-09 22:26N 49°01' W 123°09'0 0.0
2017-Oct-09 21:56N 49°01' W 123°09'0 0.0
2017-Oct-09 21:26N 49°01' W 123°09'0 0.0
2017-Oct-09 20:59N 49°01' W 123°09'0 0.0
2017-Oct-09 20:29N 49°01' W 123°09'0 0.0
2017-Oct-09 19:59N 49°01' W 123°09'0 0.0
2017-Oct-09 19:29N 49°01' W 123°09'0 0.0
2017-Oct-09 18:59N 49°01' W 123°09'0 0.0
2017-Oct-09 18:29N 49°01' W 123°09'0 0.0
2017-Oct-09 17:59N 49°01' W 123°09'0 0.0
2017-Oct-09 17:29N 49°01' W 123°09'0 0.0
2017-Oct-09 16:59N 49°01' W 123°09'0 0.0
2017-Oct-09 16:29N 49°01' W 123°09'0 0.0
2017-Oct-09 15:59N 49°01' W 123°09'0 0.0
2017-Oct-09 15:29N 49°01' W 123°09'0 0.0
2017-Oct-09 14:56N 49°01' W 123°09'0 0.0
2017-Oct-09 14:29N 49°01' W 123°09'0 0.0
2017-Oct-09 13:59N 49°01' W 123°09'0 0.0
2017-Oct-09 13:29N 49°01' W 123°09'0 0.0
2017-Oct-09 12:59N 49°01' W 123°09'0 0.0
2017-Oct-09 12:29N 49°01' W 123°09'0 0.0
2017-Oct-09 11:56N 49°01' W 123°09'0 0.0
2017-Oct-09 11:29N 49°01' W 123°09'0 0.0
2017-Oct-09 10:53N 49°01' W 123°09'0 0.0
2017-Oct-09 10:29N 49°01' W 123°09'0 0.0
2017-Oct-09 09:59N 49°01' W 123°09'0 0.0
2017-Oct-09 09:29N 49°01' W 123°09'0 0.0
2017-Oct-09 08:59N 49°01' W 123°09'0 0.0
2017-Oct-09 08:29N 49°01' W 123°09'0 0.0
2017-Oct-09 07:59N 49°01' W 123°09'0 0.0
2017-Oct-09 07:29N 49°01' W 123°09'0 0.0
2017-Oct-09 06:59N 49°01' W 123°09'0 0.0
2017-Oct-09 06:29N 49°01' W 123°09'0 0.0
2017-Oct-09 05:59N 49°01' W 123°09'0 0.0
2017-Oct-09 05:29N 49°01' W 123°09'0 0.0
2017-Oct-09 04:56N 49°01' W 123°09'0 0.0
2017-Oct-09 04:29N 49°01' W 123°09'0 0.0
2017-Oct-09 03:59N 49°01' W 123°09'0 0.0
2017-Oct-09 03:29N 49°01' W 123°09'0 0.0
2017-Oct-09 02:59N 49°01' W 123°09'0 0.0
2017-Oct-09 02:29N 49°01' W 123°09'0 0.0
2017-Oct-09 01:59N 49°01' W 123°09'0 0.0
2017-Oct-09 01:20N 49°01' W 123°09'0 0.0
2017-Oct-09 00:56N 49°01' W 123°09'0 0.0
2017-Oct-09 00:26N 49°01' W 123°09'0 0.0
2017-Oct-08 23:59N 49°01' W 123°09'0 0.0
2017-Oct-08 23:26N 49°01' W 123°09'0 0.0
2017-Oct-08 22:59N 49°01' W 123°09'0 0.0
2017-Oct-08 22:29N 49°01' W 123°09'0 0.0
2017-Oct-08 21:59N 49°01' W 123°09'0 0.0
2017-Oct-08 21:29N 49°01' W 123°09'0 0.0
2017-Oct-08 20:53N 49°01' W 123°09'0 0.0
2017-Oct-08 20:29N 49°01' W 123°09'0 0.0
2017-Oct-08 19:53N 49°01' W 123°09'0 0.0
2017-Oct-08 19:29N 49°01' W 123°09'0 0.0
2017-Oct-08 18:53N 49°01' W 123°09'0 0.0
2017-Oct-08 18:29N 49°01' W 123°09'0 0.0
2017-Oct-08 18:01N 49°01' W 123°09'1 1.2
2017-Oct-08 17:30N 49°00' W 123°10'1 2.7
2017-Oct-08 17:00N 49°00' W 123°12'1 3.0
2017-Oct-08 16:30N 49°00' W 123°14'4 8.7
2017-Oct-08 16:01N 49°02' W 123°20'612.6
2017-Oct-08 15:30N 49°08' W 123°22'713.5
2017-Oct-08 15:01N 49°15' W 123°20'510.8
2017-Oct-08 14:30N 49°18' W 123°14'0 0.9
2017-Oct-08 13:59N 49°18' W 123°13'0 0.1
2017-Oct-08 13:29N 49°18' W 123°13'0 0.0
2017-Oct-08 12:59N 49°18' W 123°13'0 0.1
2017-Oct-08 12:29N 49°18' W 123°13'0 0.1
2017-Oct-08 11:59N 49°18' W 123°13'0 0.1
2017-Oct-08 11:29N 49°18' W 123°13'0 0.1
2017-Oct-08 10:59N 49°18' W 123°13'0 0.1
2017-Oct-08 10:29N 49°18' W 123°13'0 0.1
2017-Oct-08 09:59N 49°18' W 123°13'0 0.1
2017-Oct-08 09:29N 49°18' W 123°13'0 0.0
2017-Oct-08 08:59N 49°18' W 123°13'0 0.1
2017-Oct-08 08:29N 49°18' W 123°13'0 0.1
2017-Oct-08 07:59N 49°18' W 123°13'0 0.1
2017-Oct-08 07:29N 49°18' W 123°13'0 0.0
2017-Oct-08 06:59N 49°18' W 123°13'0 0.0
2017-Oct-08 06:29N 49°18' W 123°13'0 0.0
2017-Oct-08 05:59N 49°18' W 123°13'0 0.0
2017-Oct-08 05:29N 49°18' W 123°13'0 0.0
2017-Oct-08 04:59N 49°18' W 123°13'0 0.0
2017-Oct-08 04:29N 49°18' W 123°13'0 0.0
2017-Oct-08 03:59N 49°18' W 123°13'0 0.0
2017-Oct-08 03:29N 49°18' W 123°13'0 0.1
2017-Oct-08 02:59N 49°18' W 123°13'0 0.2
2017-Oct-08 02:29N 49°18' W 123°13'0 0.2
2017-Oct-08 01:59N 49°18' W 123°13'0 0.2
2017-Oct-08 01:29N 49°18' W 123°13'0 0.0
2017-Oct-08 00:59N 49°18' W 123°13'0 0.0
2017-Oct-08 00:26N 49°18' W 123°13'0 0.1
2017-Oct-07 23:59N 49°18' W 123°13'0 0.0
2017-Oct-07 23:29N 49°18' W 123°13'0 0.0
2017-Oct-07 22:56N 49°18' W 123°13'0 0.0
2017-Oct-07 22:29N 49°18' W 123°13'0 0.0
2017-Oct-07 21:59N 49°18' W 123°13'0 0.0
2017-Oct-07 21:29N 49°18' W 123°13'0 0.0
2017-Oct-07 20:59N 49°18' W 123°13'0 0.1
2017-Oct-07 20:29N 49°18' W 123°13'0 0.1
2017-Oct-07 19:59N 49°18' W 123°13'0 0.1
2017-Oct-07 19:29N 49°18' W 123°13'0 0.2
2017-Oct-07 18:59N 49°18' W 123°13'0 0.1
2017-Oct-07 18:29N 49°18' W 123°13'0 0.0
2017-Oct-07 17:59N 49°18' W 123°13'0 0.0
2017-Oct-07 17:29N 49°18' W 123°13'0 0.1
2017-Oct-07 16:59N 49°18' W 123°13'0 0.1
2017-Oct-07 16:29N 49°18' W 123°13'0 0.1
2017-Oct-07 15:59N 49°18' W 123°13'0 0.1
2017-Oct-07 15:29N 49°18' W 123°13'0 0.1
2017-Oct-07 14:56N 49°18' W 123°13'0 0.1
2017-Oct-07 14:26N 49°18' W 123°13'0 0.1
2017-Oct-07 13:59N 49°18' W 123°13'0 0.1
2017-Oct-07 13:29N 49°18' W 123°13'0 0.0
2017-Oct-07 12:59N 49°18' W 123°13'0 0.1
2017-Oct-07 12:29N 49°18' W 123°13'0 0.0
2017-Oct-07 11:59N 49°18' W 123°13'0 0.1
2017-Oct-07 11:29N 49°18' W 123°13'0 0.0
2017-Oct-07 10:59N 49°18' W 123°13'0 0.0
2017-Oct-07 10:29N 49°18' W 123°13'0 0.0
2017-Oct-07 09:59N 49°18' W 123°13'0 0.0
2017-Oct-07 09:29N 49°18' W 123°13'0 0.0
2017-Oct-07 08:56N 49°18' W 123°13'0 0.0
2017-Oct-07 08:29N 49°18' W 123°13'0 0.0
2017-Oct-07 07:59N 49°18' W 123°13'0 0.0
2017-Oct-07 07:29N 49°18' W 123°13'0 0.0
2017-Oct-07 06:59N 49°18' W 123°13'0 0.0
2017-Oct-07 06:29N 49°18' W 123°13'0 0.0
2017-Oct-07 05:59N 49°18' W 123°13'0 0.0
2017-Oct-07 05:29N 49°18' W 123°13'0 0.0
2017-Oct-07 04:59N 49°18' W 123°13'0 0.2
2017-Oct-07 04:29N 49°18' W 123°13'0 0.0
2017-Oct-07 03:59N 49°18' W 123°13'0 0.1
2017-Oct-07 03:29N 49°18' W 123°13'0 0.1
2017-Oct-07 02:59N 49°18' W 123°13'0 0.1
2017-Oct-07 02:29N 49°18' W 123°13'0 0.2
2017-Oct-07 01:59N 49°18' W 123°13'0 0.3
2017-Oct-07 01:29N 49°18' W 123°13'0 0.2
2017-Oct-07 00:59N 49°18' W 123°13'0 0.1
2017-Oct-07 00:29N 49°18' W 123°13'0 0.0
2017-Oct-06 23:59N 49°18' W 123°13'0 0.0
2017-Oct-06 23:29N 49°18' W 123°13'0 0.0
2017-Oct-06 22:59N 49°18' W 123°13'0 0.1
2017-Oct-06 22:29N 49°18' W 123°13'0 0.0
2017-Oct-06 21:59N 49°18' W 123°13'0 0.0
2017-Oct-06 21:29N 49°18' W 123°13'0 0.2
2017-Oct-06 21:01N 49°18' W 123°13'1 2.8
2017-Oct-06 20:31N 49°18' W 123°16'5 9.8
2017-Oct-06 20:00N 49°13' W 123°19'714.8
2017-Oct-06 19:30N 49°06' W 123°21'713.3
2017-Oct-06 19:00N 49°01' W 123°15'713.6
2017-Oct-06 18:30N 48°56' W 123°08'714.0
2017-Oct-06 18:01N 48°50' W 123°01'510.1
2017-Oct-06 17:31N 48°46' W 123°03'611.8
2017-Oct-06 17:01N 48°43' W 123°11'612.9
2017-Oct-06 16:30N 48°46' W 123°20'613.0
2017-Oct-06 16:00N 48°52' W 123°25'713.8
2017-Oct-06 15:31N 48°57' W 123°32'713.0
2017-Oct-06 15:00N 49°02' W 123°38'0 0.7
2017-Oct-06 14:21N 49°02' W 123°39'0 0.0
2017-Oct-06 13:54N 49°02' W 123°39'0 0.0
2017-Oct-06 13:24N 49°02' W 123°39'0 0.0
2017-Oct-06 12:48N 49°02' W 123°39'0 0.0
2017-Oct-06 12:18N 49°02' W 123°39'0 0.1
2017-Oct-06 11:57N 49°02' W 123°39'0 0.0
2017-Oct-06 11:27N 49°02' W 123°39'0 0.0
2017-Oct-06 10:54N 49°02' W 123°39'0 0.0
2017-Oct-06 10:27N 49°02' W 123°39'0 0.1
2017-Oct-06 09:54N 49°02' W 123°39'0 0.1
2017-Oct-06 08:30N 49°02' W 123°39'0 0.2
2017-Oct-06 07:57N 49°02' W 123°39'0 0.1
2017-Oct-06 07:09N 49°02' W 123°39'0 0.0
2017-Oct-06 06:39N 49°02' W 123°39'0 0.0
2017-Oct-06 06:21N 49°02' W 123°39'0 0.1
2017-Oct-06 06:00N 49°02' W 123°39'0 0.0
2017-Oct-06 03:36N 49°02' W 123°39'0 0.0
2017-Oct-06 02:33N 49°02' W 123°39'0 0.2
2017-Oct-06 02:21N 49°02' W 123°39'0 0.1
2017-Oct-06 01:57N 49°02' W 123°39'0 0.2
2017-Oct-06 01:27N 49°02' W 123°39'0 0.1
2017-Oct-06 00:39N 49°02' W 123°39'0 0.1
2017-Oct-06 00:21N 49°02' W 123°39'0 0.0
2017-Oct-05 23:57N 49°02' W 123°39'0 0.0
2017-Oct-05 22:57N 49°02' W 123°39'0 0.0
2017-Oct-05 21:45N 49°02' W 123°39'0 0.1
2017-Oct-05 21:27N 49°02' W 123°39'0 0.1
2017-Oct-05 20:51N 49°02' W 123°39'0 0.2
2017-Oct-05 20:30N 49°02' W 123°39'0 0.2
2017-Oct-05 19:54N 49°02' W 123°39'0 0.1
2017-Oct-05 19:15N 49°02' W 123°39'0 0.1
2017-Oct-05 18:57N 49°02' W 123°39'0 0.0
2017-Oct-05 18:18N 49°02' W 123°39'0 0.1
2017-Oct-05 17:57N 49°02' W 123°39'0 0.0
2017-Oct-05 17:03N 49°02' W 123°39'0 0.0
2017-Oct-05 16:51N 49°02' W 123°39'0 0.0
2017-Oct-05 15:21N 49°02' W 123°39'0 0.1
2017-Oct-05 14:03N 49°02' W 123°39'0 0.2
2017-Oct-05 14:00N 49°02' W 123°39'0 0.2
2017-Oct-05 13:27N 49°02' W 123°39'  

Dump ship's entire track history